Spa/La Sauveniere, Belgium
Current Conditions -  °F | °C
As of 5:25 PM on Tuesday 21 Oct 2014 (Local Time) from EBLB Reporting Station
Broken Clouds Broken Clouds  
Wind Chill: 36°   Ceiling: 3000
Heat Index: 45°   Visibility: 6mi
Dew Point: 43°   Wind: 21mph
Humidity: 93%   Direction: 300°WNW
Pressure: 29.62"   Gusts: NA
Location:  50.49°N, 5.89°E
Report Text: EBLB 211525Z AUTO 30018KT 9999 FEW009/// SCT025/// BKN030/// 07/06 Q1003 BLU
Loading
Personal Weather Stations






























Interactive Weather Map New forecast layout! Learn more

10-Day Weather Forecast

Advertisements
Track Severe Weather on mobile